METAR Data
IDs: Format: Raw Decoded Include TAF

Data at: 0303 UTC 20 Jan 2022

OPIS 200300Z 27004KT 1200 R28L/1700 RMID/1300 R10R/0800 BR FEW0 40 SCT100 07/07 Q1012 TEMPO 0800